createdAt,value
2019-04-14T00:02:33.739Z,9.53
2019-04-14T00:07:37.020Z,10.07
2019-04-14T00:12:40.583Z,9.73
2019-04-14T00:17:43.897Z,10.00
2019-04-14T00:22:47.316Z,9.40
2019-04-14T00:27:50.617Z,9.37
2019-04-14T00:32:55.566Z,6.80
2019-04-14T00:38:19.523Z,7.27
2019-04-14T00:43:27.431Z,7.53
2019-04-14T00:48:31.990Z,7.67
2019-04-14T00:53:36.006Z,8.10
2019-04-14T00:58:39.358Z,9.27
2019-04-14T01:03:43.571Z,6.87
2019-04-14T01:08:47.116Z,9.17
2019-04-14T01:13:50.833Z,6.93
2019-04-14T01:18:54.111Z,8.80
2019-04-14T01:23:57.422Z,7.37
2019-04-14T01:29:01.468Z,7.83
2019-04-14T01:34:04.871Z,7.07
2019-04-14T01:39:08.968Z,8.90
2019-04-14T01:44:13.261Z,7.83
2019-04-14T01:49:17.923Z,9.30
2019-04-14T01:54:23.490Z,9.53
2019-04-14T01:59:26.876Z,7.27
2019-04-14T02:04:31.283Z,7.10
2019-04-14T02:09:35.759Z,8.00
2019-04-14T02:14:39.114Z,9.40
2019-04-14T02:19:43.775Z,8.60
2019-04-14T02:24:48.180Z,8.70
2019-04-14T02:29:51.668Z,6.30
2019-04-14T02:35:24.160Z,8.93
2019-04-14T02:40:28.642Z,7.63
2019-04-14T02:45:35.366Z,7.50
2019-04-14T02:50:30.722Z,7.90
2019-04-14T02:55:42.282Z,6.50
2019-04-14T03:00:54.189Z,8.83
2019-04-14T03:05:57.959Z,6.93
2019-04-14T03:10:55.719Z,7.40
2019-04-14T03:16:08.019Z,7.33
2019-04-14T03:21:26.272Z,6.10
2019-04-14T03:26:40.334Z,6.07
2019-04-14T03:41:52.793Z,7.53
2019-04-14T03:47:08.900Z,7.73
2019-04-14T03:56:49.002Z,7.93
2019-04-14T04:01:54.460Z,8.80
2019-04-14T04:06:57.901Z,8.27
2019-04-14T04:12:01.226Z,8.30
2019-04-14T04:17:06.153Z,9.70
2019-04-14T04:22:26.463Z,7.20
2019-04-14T04:27:31.403Z,7.90
2019-04-14T04:32:51.517Z,9.63
2019-04-14T04:37:56.495Z,8.63
2019-04-14T04:42:59.852Z,9.07
2019-04-14T04:48:04.574Z,11.40
2019-04-14T04:53:08.990Z,8.67
2019-04-14T04:58:12.592Z,11.40
2019-04-14T05:03:16.844Z,9.23
2019-04-14T05:08:20.175Z,9.47
2019-04-14T05:13:24.863Z,9.17
2019-04-14T05:18:29.028Z,11.17
2019-04-14T05:23:32.393Z,9.63
2019-04-14T05:28:35.688Z,8.67
2019-04-14T05:33:38.990Z,10.60
2019-04-14T05:38:42.839Z,8.57
2019-04-14T05:43:52.053Z,7.67
2019-04-14T05:48:51.485Z,8.57
2019-04-14T05:53:54.821Z,7.63
2019-04-14T05:58:58.323Z,10.47
2019-04-14T06:04:02.497Z,9.43
2019-04-14T06:09:07.665Z,7.47
2019-04-14T06:14:11.150Z,9.77
2019-04-14T06:19:14.538Z,8.73
2019-04-14T06:24:18.041Z,11.50
2019-04-14T06:29:21.348Z,8.67
2019-04-14T06:34:41.234Z,7.10
2019-04-14T06:39:48.869Z,8.87
2019-04-14T06:44:52.210Z,11.47
2019-04-14T06:49:55.495Z,11.27
2019-04-14T06:54:58.788Z,9.70
2019-04-14T07:00:02.095Z,9.87
2019-04-14T07:05:06.658Z,9.13
2019-04-14T07:10:10.090Z,9.13
2019-04-14T07:15:13.381Z,8.40
2019-04-14T07:20:16.678Z,9.40
2019-04-14T07:25:19.986Z,11.00
2019-04-14T07:30:27.675Z,9.20
2019-04-14T07:35:48.756Z,10.90
2019-04-14T07:41:09.771Z,9.63
2019-04-14T07:46:14.727Z,8.77
2019-04-14T07:51:19.646Z,7.70
2019-04-14T07:56:24.591Z,8.23
2019-04-14T08:01:29.523Z,9.37
2019-04-14T08:06:33.441Z,7.33
2019-04-14T08:11:36.738Z,8.27
2019-04-14T08:16:40.042Z,9.83
2019-04-14T08:21:43.349Z,10.20
2019-04-14T08:26:46.719Z,7.70
2019-04-14T08:31:50.006Z,6.80
2019-04-14T08:36:53.544Z,9.07
2019-04-14T08:42:04.133Z,7.03
2019-04-14T08:47:09.066Z,8.33
2019-04-14T08:52:14.019Z,10.83
2019-04-14T08:57:18.985Z,8.53
2019-04-14T09:02:26.324Z,9.77
2019-04-14T09:07:40.509Z,9.87
2019-04-14T09:12:45.578Z,8.73
2019-04-14T09:17:48.875Z,9.77
2019-04-14T09:22:52.171Z,7.97
2019-04-14T09:27:55.460Z,7.87
2019-04-14T09:32:58.762Z,9.10
2019-04-14T09:38:02.060Z,9.67
2019-04-14T09:43:05.537Z,9.40
2019-04-14T09:48:08.847Z,11.50
2019-04-14T09:53:12.239Z,8.70
2019-04-14T09:58:16.120Z,9.05
2019-04-14T10:03:19.387Z,7.97
2019-04-14T10:08:22.686Z,7.53
2019-04-14T10:13:26.059Z,5.93
2019-04-14T10:18:29.360Z,8.83
2019-04-14T10:23:32.653Z,7.67
2019-04-14T10:28:35.960Z,8.53
2019-04-14T10:33:39.328Z,6.73
2019-04-14T10:38:42.633Z,8.50
2019-04-14T10:43:45.918Z,6.57
2019-04-14T10:48:49.221Z,8.37
2019-04-14T10:53:52.521Z,6.73
2019-04-14T10:58:55.872Z,7.97
2019-04-14T11:03:59.164Z,11.00
2019-04-14T11:09:02.597Z,9.27
2019-04-14T11:14:05.905Z,9.83
2019-04-14T11:19:09.235Z,9.20
2019-04-14T11:24:12.542Z,9.83
2019-04-14T11:29:15.836Z,9.70
2019-04-14T11:34:21.019Z,8.93
2019-04-14T11:39:24.494Z,10.00
2019-04-14T11:44:27.789Z,9.57
2019-04-14T11:49:31.092Z,10.23
2019-04-14T11:54:34.472Z,10.00
2019-04-14T11:59:39.416Z,9.40
2019-04-14T12:04:47.031Z,7.80
2019-04-14T12:09:51.980Z,10.20
2019-04-14T12:14:55.289Z,9.63
2019-04-14T12:19:58.604Z,6.85
2019-04-14T12:25:01.924Z,8.03
2019-04-14T12:30:11.094Z,7.10
2019-04-14T12:35:14.779Z,7.17
2019-04-14T12:40:18.119Z,8.37
2019-04-14T12:45:39.222Z,8.07
2019-04-14T12:50:52.974Z,8.47
2019-04-14T12:55:56.286Z,9.67
2019-04-14T13:01:01.233Z,8.88
2019-04-14T13:06:04.621Z,8.20
2019-04-14T13:11:08.197Z,8.43
2019-04-14T13:16:11.504Z,7.13
2019-04-14T13:21:14.817Z,8.47
2019-04-14T13:26:20.075Z,7.90
2019-04-14T13:31:23.398Z,6.67
2019-04-14T13:36:26.702Z,7.70
2019-04-14T13:41:30.013Z,7.57
2019-04-14T13:46:33.359Z,7.10
2019-04-14T13:51:36.694Z,8.23
2019-04-14T13:56:40.078Z,8.70
2019-04-14T14:01:43.396Z,6.37
2019-04-14T14:06:46.816Z,6.10
2019-04-14T14:11:57.746Z,6.70
2019-04-14T14:17:08.501Z,6.37
2019-04-14T14:22:13.454Z,5.90
2019-04-14T14:27:16.751Z,5.67
2019-04-14T14:32:21.715Z,5.60
2019-04-14T14:37:25.021Z,5.03
2019-04-14T14:42:28.340Z,5.60
2019-04-14T14:47:33.284Z,6.67
2019-04-14T14:52:38.030Z,6.57
2019-04-14T14:57:41.339Z,5.90
2019-04-14T15:02:44.717Z,7.50
2019-04-14T15:07:48.049Z,6.30
2019-04-14T15:12:51.382Z,6.37
2019-04-14T15:17:56.111Z,4.93
2019-04-14T15:22:59.403Z,5.40
2019-04-14T15:28:03.675Z,5.30
2019-04-14T15:33:06.974Z,6.97
2019-04-14T15:38:10.282Z,5.83
2019-04-14T15:43:13.591Z,6.13
2019-04-14T15:48:16.937Z,6.47
2019-04-14T15:53:20.295Z,5.67
2019-04-14T15:58:37.464Z,5.10
2019-04-14T16:03:58.662Z,6.30
2019-04-14T16:09:19.766Z,4.60
2019-04-14T16:14:24.746Z,5.43
2019-04-14T16:19:32.440Z,5.23
2019-04-14T16:24:35.754Z,6.53
2019-04-14T16:29:44.023Z,5.37
2019-04-14T16:34:49.947Z,5.87
2019-04-14T16:39:53.257Z,5.90
2019-04-14T16:44:56.563Z,5.93
2019-04-14T16:50:00.033Z,6.60
2019-04-14T16:55:08.540Z,8.50
2019-04-14T17:00:13.650Z,6.97
2019-04-14T17:05:16.987Z,6.93
2019-04-14T17:10:20.297Z,7.67
2019-04-14T17:15:31.097Z,7.27
2019-04-14T17:20:38.702Z,8.67
2019-04-14T17:25:49.502Z,7.43
2019-04-14T17:30:56.946Z,6.40
2019-04-14T17:36:11.236Z,10.33
2019-04-14T17:41:19.074Z,9.53
2019-04-14T17:46:24.084Z,8.37
2019-04-14T17:51:31.719Z,9.33
2019-04-14T17:56:36.672Z,10.80
2019-04-14T18:01:47.175Z,9.93
2019-04-14T18:06:55.228Z,11.07
2019-04-14T18:12:09.180Z,10.20
2019-04-14T18:17:29.173Z,9.33
2019-04-14T18:22:32.554Z,8.97
2019-04-14T18:27:37.521Z,12.50
2019-04-14T18:32:44.883Z,10.13
2019-04-14T18:37:52.979Z,11.07
2019-04-14T18:42:58.271Z,8.70
2019-04-14T18:48:05.778Z,11.43
2019-04-14T18:53:11.016Z,10.20
2019-04-14T18:58:16.273Z,11.00
2019-04-14T19:03:19.670Z,9.73
2019-04-14T19:08:22.969Z,10.40
2019-04-14T19:13:32.189Z,10.77
2019-04-14T19:18:39.655Z,10.40
2019-04-14T19:23:43.070Z,11.17
2019-04-14T19:28:46.610Z,10.83
2019-04-14T19:33:50.011Z,11.03
2019-04-14T19:38:53.362Z,10.37
2019-04-14T19:43:56.740Z,11.97
2019-04-14T19:49:00.413Z,12.43
2019-04-14T19:54:03.926Z,11.90
2019-04-14T19:59:07.311Z,10.63
2019-04-14T20:04:10.640Z,13.00
2019-04-14T20:09:13.951Z,11.30
2019-04-14T20:14:17.337Z,12.03
2019-04-14T20:19:41.559Z,11.63
2019-04-14T20:24:49.264Z,11.77
2019-04-14T20:29:59.998Z,13.03
2019-04-14T20:35:03.469Z,10.48
2019-04-14T20:40:07.104Z,12.33
2019-04-14T20:45:12.160Z,12.37
2019-04-14T20:50:16.012Z,12.80
2019-04-14T20:55:19.329Z,13.45
2019-04-14T21:00:22.769Z,13.43
2019-04-14T21:05:27.711Z,12.60
2019-04-14T21:10:44.609Z,13.60
2019-04-14T21:16:12.663Z,12.17
2019-04-14T21:21:14.343Z,11.67
2019-04-14T21:26:37.625Z,12.80
2019-04-14T21:31:42.621Z,14.13
2019-04-14T21:36:50.212Z,12.00
2019-04-14T21:41:53.690Z,12.80
2019-04-14T21:46:57.031Z,14.50
2019-04-14T21:52:20.170Z,12.73
2019-04-14T21:57:27.532Z,12.90
2019-04-14T22:02:48.659Z,11.70
2019-04-14T22:07:53.599Z,12.27
2019-04-14T22:12:57.037Z,11.43
2019-04-14T22:18:00.658Z,11.23
2019-04-14T22:23:05.587Z,12.53
2019-04-14T22:28:08.958Z,13.57
2019-04-14T22:33:12.340Z,11.10
2019-04-14T22:38:15.651Z,13.85
2019-04-14T22:43:18.951Z,13.17
2019-04-14T22:48:22.271Z,12.13
2019-04-14T22:53:25.583Z,11.13
2019-04-14T22:58:28.899Z,12.63
2019-04-14T23:03:36.219Z,12.50
2019-04-14T23:08:46.680Z,12.40
2019-04-14T23:14:06.276Z,12.27
2019-04-14T23:19:11.212Z,12.40
2019-04-14T23:24:18.828Z,11.88
2019-04-14T23:29:22.124Z,12.53
2019-04-14T23:34:25.416Z,10.45
2019-04-14T23:39:28.721Z,11.63
2019-04-14T23:44:32.032Z,11.80
2019-04-14T23:49:35.346Z,12.03
2019-04-14T23:54:38.663Z,10.00
2019-04-14T23:59:41.957Z,10.17
